Time;durP1;ratioP1;P1;durP2;ratioP2;P2;SDS_P1;SDS_P2;PMS_P1;PMS_P2;Temp;Humidity;BMP_temperature;BMP_pressure;BME280_temperature;BME280_humidity;BME280_pressure;Samples;Min_cycle;Max_cycle;Signal;HPM_P1;HPM_P2
2022/04/26 03:36:06;;;;;;;;;;;8.70;99.90;;;;;;5010456;28;20021;-76
2022/04/26 03:38:32;;;;;;;;;;;8.70;99.90;;;;;;4988021;28;19932;-76
2022/04/26 03:40:58;;;;;;;;;;;8.70;99.90;;;;;;4989185;28;20355;-76
2022/04/26 03:43:23;;;;;;;;;;;8.70;99.90;;;;;;4988187;28;19932;-75
2022/04/26 03:45:49;;;;;;;;;;;8.60;99.90;;;;;;5052904;28;19931;-75
2022/04/26 03:48:14;;;;;;;;;;;8.60;99.90;;;;;;5089834;28;20317;-75
2022/04/26 03:50:40;;;;;;;;;;;8.60;99.90;;;;;;5089984;28;20023;-76
2022/04/26 03:53:05;;;;;;;;;;;8.60;99.90;;;;;;5090460;28;20446;-76
2022/04/26 03:55:31;;;;;;;;;;;8.60;99.90;;;;;;5090120;28;19940;-75
2022/04/26 03:57:57;;;;;;;;;;;8.60;99.90;;;;;;5090012;28;19931;-76
2022/04/26 04:00:23;;;;;;;;;;;8.60;99.90;;;;;;5090257;28;20019;-76
2022/04/26 04:02:49;;;;;;;;;;;8.60;99.90;;;;;;5089875;28;19970;-76
2022/04/26 04:05:14;;;;;;;;;;;8.50;99.90;;;;;;5090968;28;19924;-76
2022/04/26 04:07:40;;;;;;;;;;;8.60;99.90;;;;;;5090339;28;19932;-76
2022/04/26 04:10:06;;;;;;;;;;;8.60;99.90;;;;;;5089628;28;19930;-76
2022/04/26 04:12:31;;;;;;;;;;;8.60;99.90;;;;;;5089624;28;19928;-75
2022/04/26 04:14:57;;;;;;;;;;;8.60;99.90;;;;;;5090956;28;19924;-76
2022/04/26 04:17:22;;;;;;;;;;;8.50;99.90;;;;;;5089495;28;20415;-76
2022/04/26 04:19:47;;;;;;;;;;;8.50;99.90;;;;;;5031761;28;19933;-76
2022/04/26 04:22:14;;;;;;;;;;;8.50;99.90;;;;;;5089718;28;19932;-76
2022/04/26 04:24:40;;;;;;;;;;;8.50;99.90;;;;;;4987250;28;19971;-75
2022/04/26 04:27:05;;;;;;;;;;;8.50;99.90;;;;;;4986852;28;19983;-76
2022/04/26 04:29:31;;;;;;;;;;;8.50;99.90;;;;;;4988338;28;19934;-76
2022/04/26 04:31:56;;;;;;;;;;;8.50;99.90;;;;;;4987649;28;19951;-76
2022/04/26 04:34:22;;;;;;;;;;;8.50;99.90;;;;;;4986958;28;19930;-76
2022/04/26 04:36:48;;;;;;;;;;;8.60;99.90;;;;;;4986910;28;19945;-76
2022/04/26 04:39:19;;;;;;;;;;;8.60;99.90;;;;;;4988456;28;19926;-76
2022/04/26 04:41:45;;;;;;;;;;;8.60;99.90;;;;;;5072561;28;19926;-76
2022/04/26 04:44:11;;;;;;;;;;;8.60;99.90;;;;;;5089366;28;20380;-76
2022/04/26 04:46:36;;;;;;;;;;;8.60;99.90;;;;;;4987089;28;19926;-76
2022/04/26 04:49:02;;;;;;;;;;;8.70;99.90;;;;;;4988320;28;20016;-76
2022/04/26 04:51:28;;;;;;;;;;;8.70;99.90;;;;;;4986673;28;19929;-76
2022/04/26 04:53:54;;;;;;;;;;;8.70;99.90;;;;;;4987145;28;20360;-76
2022/04/26 04:56:19;;;;;;;;;;;8.70;99.90;;;;;;5088727;28;19926;-76
2022/04/26 04:58:45;;;;;;;;;;;8.80;99.90;;;;;;5071882;28;19926;-76
2022/04/26 05:01:10;;;;;;;;;;;8.80;99.90;;;;;;4986480;28;20356;-76
2022/04/26 05:03:36;;;;;;;;;;;8.80;99.90;;;;;;5089125;28;20020;-76
2022/04/26 05:06:01;;;;;;;;;;;8.80;99.90;;;;;;5088555;28;19976;-76
2022/04/26 05:08:27;;;;;;;;;;;8.80;99.90;;;;;;4987808;28;20302;-76
2022/04/26 05:10:52;;;;;;;;;;;8.80;99.90;;;;;;4986939;28;19925;-76
2022/04/26 05:13:18;;;;;;;;;;;8.80;99.90;;;;;;4986387;28;19937;-76
2022/04/26 05:15:44;;;;;;;;;;;8.80;99.90;;;;;;4986446;28;19961;-76
2022/04/26 05:18:12;;;;;;;;;;;8.80;99.90;;;;;;4986338;28;20435;-76
2022/04/26 05:20:37;;;;;;;;;;;8.90;99.90;;;;;;5080098;28;19924;-76
2022/04/26 05:25:47;;;;;;;;;;;8.90;99.90;;;;;;5088898;28;19924;-76
2022/04/26 05:28:13;;;;;;;;;;;9.00;99.90;;;;;;5088963;28;19947;-76
2022/04/26 05:30:38;;;;;;;;;;;9.00;99.90;;;;;;5089956;28;19928;-76
2022/04/26 05:33:04;;;;;;;;;;;9.00;99.90;;;;;;5089520;28;20012;-76
2022/04/26 05:35:29;;;;;;;;;;;9.10;99.90;;;;;;5089528;28;20394;-76
2022/04/26 05:37:55;;;;;;;;;;;9.10;99.90;;;;;;5055362;28;19926;-76
2022/04/26 05:40:20;;;;;;;;;;;9.10;99.90;;;;;;4993272;28;19978;-75
2022/04/26 05:42:46;;;;;;;;;;;9.10;99.90;;;;;;5087306;28;19929;-75
2022/04/26 05:45:11;;;;;;;;;;;9.10;99.90;;;;;;4996666;28;19948;-75
2022/04/26 05:47:40;;;;;;;;;;;9.10;99.90;;;;;;5006300;28;20023;-76
2022/04/26 05:50:06;;;;;;;;;;;9.20;99.90;;;;;;5005107;28;20410;-75
2022/04/26 05:52:31;;;;;;;;;;;9.20;99.90;;;;;;5001901;28;19929;-76
2022/04/26 05:54:58;;;;;;;;;;;9.20;99.90;;;;;;5007247;28;19926;-76
2022/04/26 05:57:24;;;;;;;;;;;9.20;99.90;;;;;;4992875;28;19930;-76
2022/04/26 05:59:49;;;;;;;;;;;9.20;99.90;;;;;;5010612;28;20305;-76
2022/04/26 06:02:14;;;;;;;;;;;9.20;99.90;;;;;;5010314;28;19925;-76
2022/04/26 06:04:40;;;;;;;;;;;9.20;99.90;;;;;;5010291;28;19947;-77
2022/04/26 06:07:05;;;;;;;;;;;9.20;99.90;;;;;;5010597;28;19932;-76
2022/04/26 06:09:31;;;;;;;;;;;9.20;99.90;;;;;;5009875;28;19929;-76
2022/04/26 06:11:57;;;;;;;;;;;9.30;99.90;;;;;;5111907;27;20349;-76
2022/04/26 06:14:23;;;;;;;;;;;9.30;99.90;;;;;;5009764;28;19929;-76
2022/04/26 06:16:49;;;;;;;;;;;9.40;99.90;;;;;;5008691;28;19971;-76
2022/04/26 06:19:14;;;;;;;;;;;9.50;99.90;;;;;;5122728;27;19931;-76
2022/04/26 06:21:40;;;;;;;;;;;9.60;99.90;;;;;;5093435;28;19928;-76
2022/04/26 06:24:05;;;;;;;;;;;9.60;99.90;;;;;;5093103;28;19953;-76
2022/04/26 06:26:31;;;;;;;;;;;9.70;99.90;;;;;;5093097;28;19928;-76
2022/04/26 06:28:56;;;;;;;;;;;9.70;99.90;;;;;;5093406;28;19924;-75
2022/04/26 06:31:22;;;;;;;;;;;9.80;99.90;;;;;;5093061;28;19954;-76
2022/04/26 06:33:47;;;;;;;;;;;9.80;99.90;;;;;;5092782;28;19928;-76
2022/04/26 06:36:13;;;;;;;;;;;9.90;99.90;;;;;;5093115;28;19924;-76
2022/04/26 06:38:38;;;;;;;;;;;9.90;99.90;;;;;;5092256;28;19935;-76
2022/04/26 06:41:04;;;;;;;;;;;9.80;99.90;;;;;;5093179;28;19924;-76
2022/04/26 06:43:33;;;;;;;;;;;9.90;99.90;;;;;;5092958;28;20277;-76
2022/04/26 06:46:00;;;;;;;;;;;9.80;99.90;;;;;;5092321;28;20023;-76
2022/04/26 06:48:25;;;;;;;;;;;9.90;99.90;;;;;;5092787;28;20274;-76
2022/04/26 06:50:51;;;;;;;;;;;9.90;99.90;;;;;;5091708;28;19930;-76
2022/04/26 06:53:16;;;;;;;;;;;9.90;99.90;;;;;;5092844;28;19928;-76
2022/04/26 06:55:42;;;;;;;;;;;10.00;99.90;;;;;;5092626;28;19982;-76
2022/04/26 06:58:07;;;;;;;;;;;10.10;99.90;;;;;;5091507;28;20377;-76
2022/04/26 07:00:33;;;;;;;;;;;10.00;99.90;;;;;;5091484;28;20384;-76
2022/04/26 07:02:59;;;;;;;;;;;10.10;99.90;;;;;;5091627;28;19928;-76
2022/04/26 07:05:24;;;;;;;;;;;10.10;99.90;;;;;;5091532;28;19982;-76
2022/04/26 07:07:52;;;;;;;;;;;10.10;99.90;;;;;;5092548;28;19950;-76
2022/04/26 07:10:18;;;;;;;;;;;10.20;99.90;;;;;;5092274;28;19931;-76
2022/04/26 07:12:43;;;;;;;;;;;10.30;99.90;;;;;;5092267;28;19924;-76
2022/04/26 07:15:09;;;;;;;;;;;10.40;99.90;;;;;;5092263;28;20274;-76
2022/04/26 07:17:37;;;;;;;;;;;10.50;99.90;;;;;;5092138;28;19924;-76
2022/04/26 07:20:03;;;;;;;;;;;10.60;99.90;;;;;;5023659;28;19930;-76
2022/04/26 07:22:29;;;;;;;;;;;10.60;99.90;;;;;;4989240;28;21203;-76
2022/04/26 07:24:56;;;;;;;;;;;10.70;99.90;;;;;;4989716;28;20335;-76
2022/04/26 07:27:22;;;;;;;;;;;10.80;99.90;;;;;;4989452;28;19926;-76
2022/04/26 07:29:51;;;;;;;;;;;10.90;99.90;;;;;;4989834;28;19926;-76
2022/04/26 07:32:17;;;;;;;;;;;10.80;99.90;;;;;;4989460;28;19926;-76
2022/04/26 07:34:42;;;;;;;;;;;10.80;99.90;;;;;;4989308;28;20341;-76
2022/04/26 07:37:08;;;;;;;;;;;10.80;99.90;;;;;;4988907;28;20029;-76
2022/04/26 07:39:34;;;;;;;;;;;11.00;99.90;;;;;;4988303;28;19925;-76
2022/04/26 07:42:02;;;;;;;;;;;11.10;99.90;;;;;;4989303;28;20302;-76
2022/04/26 07:44:28;;;;;;;;;;;11.10;99.90;;;;;;4989283;28;19930;-76
2022/04/26 07:46:54;;;;;;;;;;;11.20;99.90;;;;;;4989419;28;20311;-76
2022/04/26 07:49:21;;;;;;;;;;;11.20;99.90;;;;;;4989208;28;19930;-76
2022/04/26 07:51:47;;;;;;;;;;;11.40;99.90;;;;;;4988967;28;19935;-76
2022/04/26 07:54:12;;;;;;;;;;;11.40;99.90;;;;;;4987994;28;19926;-76
2022/04/26 07:56:38;;;;;;;;;;;11.30;99.90;;;;;;4988127;28;19932;-76
2022/04/26 07:59:04;;;;;;;;;;;11.30;99.90;;;;;;4989152;28;19926;-76
2022/04/26 08:01:33;;;;;;;;;;;11.30;99.90;;;;;;4988117;28;20378;-76
2022/04/26 08:03:59;;;;;;;;;;;11.20;99.90;;;;;;4988862;28;20309;-76
2022/04/26 08:06:25;;;;;;;;;;;11.20;99.90;;;;;;4989278;28;19990;-76
2022/04/26 08:08:50;;;;;;;;;;;11.20;99.90;;;;;;4988935;28;20378;-75
2022/04/26 08:11:16;;;;;;;;;;;11.30;99.90;;;;;;4988732;28;19961;-76
2022/04/26 08:13:42;;;;;;;;;;;11.40;99.90;;;;;;4988602;28;19934;-76
2022/04/26 08:16:08;;;;;;;;;;;11.40;99.90;;;;;;4988901;28;19983;-76
2022/04/26 08:18:33;;;;;;;;;;;11.40;99.90;;;;;;5093940;28;19932;-76
2022/04/26 08:20:59;;;;;;;;;;;11.50;99.90;;;;;;5091220;28;19933;-76
2022/04/26 08:23:24;;;;;;;;;;;11.60;99.90;;;;;;5091199;28;19924;-76
2022/04/26 08:28:34;;;;;;;;;;;11.80;99.90;;;;;;5089967;28;19924;-76
2022/04/26 08:31:00;;;;;;;;;;;11.70;99.90;;;;;;5090911;28;19934;-76
2022/04/26 08:33:30;;;;;;;;;;;11.60;99.90;;;;;;5089518;28;19924;-76
2022/04/26 08:35:55;;;;;;;;;;;11.60;99.90;;;;;;5089337;28;20282;-76
2022/04/26 08:38:21;;;;;;;;;;;11.60;99.90;;;;;;5090318;28;19935;-76
2022/04/26 08:40:47;;;;;;;;;;;11.60;99.90;;;;;;5090748;28;19969;-76
2022/04/26 08:43:12;;;;;;;;;;;11.60;99.90;;;;;;5090403;28;19950;-77
2022/04/26 08:45:38;;;;;;;;;;;11.50;99.90;;;;;;5090767;28;20066;-76
2022/04/26 08:51:03;;;;;;;;;;;11.70;99.90;;;;;;5090591;28;20305;-76
2022/04/26 08:53:29;;;;;;;;;;;11.80;99.90;;;;;;5089109;28;19939;-76
2022/04/26 08:55:57;;;;;;;;;;;11.80;99.90;;;;;;5106085;28;20346;-76
2022/04/26 08:58:25;;;;;;;;;;;11.80;99.90;;;;;;5088984;28;19931;-76
2022/04/26 09:01:05;;;;;;;;;;;11.80;99.90;;;;;;5090234;28;19928;-77
2022/04/26 09:03:35;;;;;;;;;;;11.80;99.90;;;;;;5071892;28;20547;-76
2022/04/26 09:06:04;;;;;;;;;;;11.80;99.90;;;;;;5090233;28;19928;-76
2022/04/26 09:08:29;;;;;;;;;;;11.90;99.90;;;;;;5089059;28;19924;-76
2022/04/26 09:10:55;;;;;;;;;;;12.00;99.90;;;;;;5089375;28;19930;-76
2022/04/26 09:13:23;;;;;;;;;;;12.20;99.90;;;;;;5089875;28;19924;-76
2022/04/26 09:15:50;;;;;;;;;;;12.30;99.70;;;;;;5090120;28;19970;-76
2022/04/26 09:18:20;;;;;;;;;;;12.40;99.90;;;;;;5089578;28;19924;-76
2022/04/26 09:20:48;;;;;;;;;;;12.40;99.00;;;;;;4992005;28;20020;-76
2022/04/26 09:23:18;;;;;;;;;;;12.60;99.20;;;;;;4987709;28;19976;-75
2022/04/26 09:25:44;;;;;;;;;;;13.00;98.90;;;;;;4987968;28;19933;-75
2022/04/26 09:28:19;;;;;;;;;;;13.20;97.70;;;;;;4987599;28;19930;-75
2022/04/26 09:30:44;;;;;;;;;;;13.60;96.90;;;;;;4986668;28;20029;-76
2022/04/26 09:33:09;;;;;;;;;;;14.00;96.30;;;;;;4987376;28;20016;-76
2022/04/26 09:35:35;;;;;;;;;;;14.40;95.80;;;;;;5002648;28;19932;-76
2022/04/26 09:38:01;;;;;;;;;;;14.70;94.80;;;;;;4986011;28;19937;-75
2022/04/26 09:40:27;;;;;;;;;;;15.10;94.20;;;;;;4986335;28;19926;-76
2022/04/26 09:42:53;;;;;;;;;;;15.60;93.40;;;;;;4987890;28;19968;-76
2022/04/26 09:45:18;;;;;;;;;;;15.80;91.00;;;;;;4987428;28;19985;-76
2022/04/26 09:47:45;;;;;;;;;;;15.90;91.80;;;;;;4987360;28;19930;-76
2022/04/26 09:50:12;;;;;;;;;;;16.00;90.70;;;;;;4987634;28;19968;-76
2022/04/26 09:52:38;;;;;;;;;;;15.80;90.30;;;;;;5002776;28;19926;-75
2022/04/26 09:55:04;;;;;;;;;;;15.70;91.10;;;;;;4986039;28;19930;-76
2022/04/26 09:57:31;;;;;;;;;;;16.10;90.70;;;;;;4986965;28;20016;-76
2022/04/26 09:59:59;;;;;;;;;;;16.30;90.70;;;;;;4987464;28;19926;-76
2022/04/26 10:02:27;;;;;;;;;;;16.40;88.90;;;;;;4986283;28;20462;-75
2022/04/26 10:04:55;;;;;;;;;;;16.10;87.10;;;;;;5088055;28;20814;-76
2022/04/26 10:07:21;;;;;;;;;;;15.80;85.30;;;;;;4986704;28;19986;-76
2022/04/26 10:09:48;;;;;;;;;;;15.70;86.10;;;;;;4987361;28;20340;-76
2022/04/26 10:12:14;;;;;;;;;;;15.80;86.10;;;;;;4986811;28;19926;-76
2022/04/26 10:14:40;;;;;;;;;;;16.00;84.00;;;;;;4987469;28;19932;-76
2022/04/26 10:17:07;;;;;;;;;;;16.30;86.50;;;;;;4986874;28;19926;-76
2022/04/26 10:19:40;;;;;;;;;;;16.70;86.10;;;;;;5033517;28;20015;-76
2022/04/26 10:22:08;;;;;;;;;;;17.00;83.50;;;;;;5089168;28;19935;-76
2022/04/26 10:24:34;;;;;;;;;;;17.20;81.30;;;;;;5089159;28;20373;-76
2022/04/26 10:27:18;;;;;;;;;;;17.30;80.80;;;;;;5089080;28;19931;-76
2022/04/26 10:29:44;;;;;;;;;;;17.50;80.60;;;;;;5089604;28;19924;-76
2022/04/26 10:32:13;;;;;;;;;;;17.70;78.50;;;;;;5088032;28;19931;-76
2022/04/26 10:34:40;;;;;;;;;;;17.80;80.10;;;;;;5089145;28;19928;-76
2022/04/26 10:37:06;;;;;;;;;;;18.00;76.70;;;;;;5089357;28;19928;-76
2022/04/26 10:39:39;;;;;;;;;;;18.00;77.20;;;;;;5089274;28;19924;-76
2022/04/26 10:42:14;;;;;;;;;;;18.00;75.90;;;;;;5090354;28;20017;-76
2022/04/26 10:44:43;;;;;;;;;;;18.00;75.40;;;;;;5091776;28;19928;-76
2022/04/26 10:47:09;;;;;;;;;;;18.10;76.50;;;;;;5093014;28;19928;-76
2022/04/26 10:49:40;;;;;;;;;;;18.20;76.00;;;;;;5091790;28;20646;-76
2022/04/26 10:52:17;;;;;;;;;;;18.30;73.70;;;;;;5091525;28;20003;-76
2022/04/26 10:54:51;;;;;;;;;;;18.30;74.70;;;;;;5092145;28;19923;-76
2022/04/26 10:57:21;;;;;;;;;;;18.50;73.70;;;;;;5091700;28;20023;-76
2022/04/26 10:59:52;;;;;;;;;;;18.70;72.80;;;;;;5091556;28;19931;-76
2022/04/26 11:02:18;;;;;;;;;;;18.70;70.40;;;;;;5092566;28;20030;-76
2022/04/26 11:04:44;;;;;;;;;;;18.50;70.70;;;;;;5092123;28;19928;-76
2022/04/26 11:07:10;;;;;;;;;;;18.50;71.10;;;;;;5091675;28;19924;-75
2022/04/26 11:09:36;;;;;;;;;;;18.40;72.00;;;;;;5092644;28;19932;-76
2022/04/26 11:12:02;;;;;;;;;;;18.30;70.20;;;;;;5092287;28;19974;-76
2022/04/26 11:14:28;;;;;;;;;;;18.50;72.30;;;;;;5091088;28;19928;-76
2022/04/26 11:16:55;;;;;;;;;;;18.70;70.60;;;;;;5090910;28;19968;-76
2022/04/26 11:19:31;;;;;;;;;;;18.60;68.40;;;;;;5035589;28;19936;-76
2022/04/26 11:21:57;;;;;;;;;;;18.50;69.50;;;;;;4988505;28;19934;-76
2022/04/26 11:29:52;;;;;;;;;;;18.60;66.00;;;;;;4988983;28;19926;-76
2022/04/26 11:32:28;;;;;;;;;;;18.60;68.50;;;;;;4988593;28;19976;-76
2022/04/26 11:34:53;;;;;;;;;;;18.60;66.30;;;;;;4988262;28;19971;-76
2022/04/26 11:37:19;;;;;;;;;;;18.80;68.00;;;;;;4988689;28;19930;-76
2022/04/26 11:39:44;;;;;;;;;;;19.00;68.20;;;;;;5089944;28;20625;-76
2022/04/26 11:42:11;;;;;;;;;;;19.30;68.60;;;;;;4988359;28;19973;-76
2022/04/26 11:44:37;;;;;;;;;;;19.70;67.50;;;;;;4988244;28;19926;-76
2022/04/26 11:47:02;;;;;;;;;;;19.80;66.00;;;;;;4988521;28;19930;-76
2022/04/26 11:49:38;;;;;;;;;;;20.00;66.30;;;;;;4988343;28;20287;-76
2022/04/26 11:52:04;;;;;;;;;;;20.10;64.50;;;;;;4986705;28;19960;-76
2022/04/26 11:54:36;;;;;;;;;;;20.00;63.50;;;;;;4986356;28;19930;-76
2022/04/26 11:57:02;;;;;;;;;;;19.90;64.80;;;;;;4988084;28;19933;-76
2022/04/26 11:59:28;;;;;;;;;;;19.80;65.30;;;;;;4987898;28;19930;-76
2022/04/26 12:01:53;;;;;;;;;;;19.90;65.30;;;;;;4988522;28;19925;-76
2022/04/26 12:04:19;;;;;;;;;;;20.00;64.40;;;;;;4989141;28;20275;-76
2022/04/26 12:06:45;;;;;;;;;;;19.90;63.00;;;;;;4988620;28;19973;-76
2022/04/26 12:09:15;;;;;;;;;;;19.70;64.00;;;;;;4988917;28;19926;-76
2022/04/26 12:11:41;;;;;;;;;;;19.60;64.20;;;;;;4989044;28;19940;-76
2022/04/26 12:14:14;;;;;;;;;;;19.70;63.80;;;;;;4989053;28;19925;-76
2022/04/26 12:16:55;;;;;;;;;;;19.90;66.00;;;;;;4989170;28;20378;-76
2022/04/26 12:19:32;;;;;;;;;;;20.00;62.40;;;;;;5025540;28;19924;-76
2022/04/26 12:21:59;;;;;;;;;;;19.70;61.50;;;;;;5090850;28;19947;-76
2022/04/26 12:24:29;;;;;;;;;;;19.50;63.00;;;;;;5091120;28;19935;-76
2022/04/26 12:26:55;;;;;;;;;;;19.40;60.30;;;;;;5089671;28;19924;-76
2022/04/26 12:29:22;;;;;;;;;;;19.30;63.20;;;;;;5089732;28;19968;-76
2022/04/26 12:31:48;;;;;;;;;;;19.30;62.00;;;;;;5089423;28;19924;-76
2022/04/26 12:34:17;;;;;;;;;;;19.20;62.80;;;;;;5090723;28;19924;-76
2022/04/26 12:37:02;;;;;;;;;;;18.90;61.80;;;;;;5090904;28;20300;-76
2022/04/26 12:39:43;;;;;;;;;;;18.50;61.80;;;;;;5089583;28;20385;-76
2022/04/26 12:42:14;;;;;;;;;;;18.20;62.60;;;;;;5089512;28;19934;-76
2022/04/26 12:44:50;;;;;;;;;;;18.60;63.20;;;;;;5088974;28;19928;-76
2022/04/26 12:52:57;;;;;;;;;;;19.20;61.20;;;;;;5090575;28;19924;-76
2022/04/26 12:55:27;;;;;;;;;;;19.20;61.10;;;;;;5090147;28;19924;-76
2022/04/26 12:57:54;;;;;;;;;;;19.40;61.00;;;;;;5089172;28;19980;-76
2022/04/26 13:00:20;;;;;;;;;;;19.60;61.00;;;;;;5090372;28;19928;-76
2022/04/26 13:02:50;;;;;;;;;;;19.30;60.10;;;;;;5090195;28;19928;-76
2022/04/26 13:05:15;;;;;;;;;;;18.80;59.50;;;;;;5090169;28;19947;-75
2022/04/26 13:07:42;;;;;;;;;;;18.50;60.80;;;;;;5089940;28;20673;-76
2022/04/26 13:10:07;;;;;;;;;;;18.60;62.60;;;;;;5090008;28;19924;-76
2022/04/26 13:12:33;;;;;;;;;;;19.10;61.70;;;;;;5089888;28;20274;-76
2022/04/26 13:14:59;;;;;;;;;;;19.20;60.10;;;;;;5090110;28;20536;-76
2022/04/26 13:17:24;;;;;;;;;;;19.10;59.80;;;;;;5088188;28;20006;-76
2022/04/26 13:19:50;;;;;;;;;;;19.40;59.60;;;;;;5030833;28;19933;-76
2022/04/26 13:22:16;;;;;;;;;;;19.60;58.90;;;;;;4987883;28;19929;-76
2022/04/26 13:24:42;;;;;;;;;;;19.30;58.80;;;;;;4988203;28;19933;-76
2022/04/26 13:27:07;;;;;;;;;;;18.90;60.00;;;;;;4987203;28;19926;-76
2022/04/26 13:29:33;;;;;;;;;;;19.00;61.00;;;;;;4987524;28;19926;-75
2022/04/26 13:31:58;;;;;;;;;;;19.40;59.50;;;;;;4987640;28;20009;-76
2022/04/26 13:34:24;;;;;;;;;;;19.20;59.10;;;;;;4987691;28;19936;-76
2022/04/26 13:36:52;;;;;;;;;;;18.60;58.50;;;;;;4985686;28;20005;-76
2022/04/26 13:39:18;;;;;;;;;;;18.20;60.30;;;;;;4987507;28;20012;-75
2022/04/26 13:41:43;;;;;;;;;;;18.10;61.40;;;;;;4987507;28;20008;-76
2022/04/26 13:44:09;;;;;;;;;;;18.00;61.00;;;;;;4987974;28;20388;-76
2022/04/26 13:46:36;;;;;;;;;;;17.70;60.60;;;;;;5088730;28;20619;-76
2022/04/26 13:49:01;;;;;;;;;;;17.60;61.80;;;;;;4986454;28;19929;-76
2022/04/26 13:51:29;;;;;;;;;;;17.50;61.80;;;;;;4987204;28;20298;-75
2022/04/26 13:53:54;;;;;;;;;;;17.50;62.00;;;;;;4987427;28;19932;-75
2022/04/26 13:56:20;;;;;;;;;;;17.40;61.60;;;;;;4987228;28;19925;-76
2022/04/26 13:58:45;;;;;;;;;;;17.20;61.40;;;;;;4987486;28;19948;-75
2022/04/26 14:01:11;;;;;;;;;;;17.10;62.50;;;;;;4987466;28;20326;-76
2022/04/26 14:03:37;;;;;;;;;;;17.80;62.40;;;;;;4987156;28;19926;-75
2022/04/26 14:06:02;;;;;;;;;;;18.80;61.40;;;;;;4985884;28;20318;-76
2022/04/26 14:08:30;;;;;;;;;;;18.80;59.60;;;;;;4987271;28;19955;-75
2022/04/26 14:10:56;;;;;;;;;;;18.40;60.70;;;;;;4987325;28;19926;-76
2022/04/26 14:13:22;;;;;;;;;;;18.30;61.40;;;;;;4985222;28;20310;-76
2022/04/26 14:24:06;;;;;;;;;;;19.80;58.20;;;;;;5093382;28;19985;-76
2022/04/26 14:26:31;;;;;;;;;;;20.90;56.70;;;;;;5092789;28;19950;-75
2022/04/26 14:28:57;;;;;;;;;;;21.40;55.30;;;;;;5075428;28;19928;-75
2022/04/26 14:31:22;;;;;;;;;;;21.10;54.10;;;;;;5093123;28;20438;-76
2022/04/26 14:33:48;;;;;;;;;;;20.10;54.60;;;;;;5092141;28;19968;-76
2022/04/26 14:36:13;;;;;;;;;;;19.30;55.10;;;;;;5092445;28;20297;-75
2022/04/26 14:38:39;;;;;;;;;;;19.70;56.40;;;;;;5075301;28;19924;-75
2022/04/26 14:41:05;;;;;;;;;;;20.50;54.80;;;;;;5092962;28;20386;-76
2022/04/26 14:43:30;;;;;;;4.18;1.60;;;20.80;54.10;;;;;;5092656;28;20007;-75
2022/04/26 14:45:56;;;;;;;6.00;1.73;;;20.70;53.90;;;;;;5072308;28;20430;-75
2022/04/26 14:48:23;;;;;;;5.50;1.67;;;21.00;54.80;;;;;;5091225;28;20809;-76
2022/04/26 14:50:48;;;;;;;6.60;2.10;;;21.40;54.60;;;;;;5091374;28;20485;-76
2022/04/26 14:53:14;;;;;;;6.13;1.80;;;21.00;53.60;;;;;;5091049;28;20946;-75
2022/04/26 14:55:40;;;;;;;6.13;1.80;;;20.20;54.50;;;;;;5090833;28;20422;-75
2022/04/26 14:58:09;;;;;;;4.60;2.00;;;20.40;55.20;;;;;;5090901;28;20759;-75
2022/04/26 15:00:36;;;;;;;5.70;1.58;;;20.20;54.80;;;;;;5090678;28;20475;-76
2022/04/26 15:03:02;;;;;;;4.37;1.80;;;19.30;55.50;;;;;;5091011;28;20400;-76
2022/04/26 15:05:28;;;;;;;5.20;1.70;;;18.50;57.10;;;;;;5090850;28;20469;-75
2022/04/26 15:10:38;;;;;;;5.53;1.80;;;18.70;57.80;;;;;;5089261;28;20418;-76
2022/04/26 15:18:32;;;;;;;6.03;1.90;;;18.20;57.20;;;;;;5087112;28;20414;-76
2022/04/26 15:20:59;;;;;;;5.00;1.70;;;18.30;57.90;;;;;;4987736;28;20410;-76
2022/04/26 15:23:25;;;;;;;5.00;1.48;;;18.00;57.10;;;;;;4988195;28;20426;-76
2022/04/26 15:25:53;;;;;;;4.78;1.85;;;17.60;58.00;;;;;;4986865;28;20437;-76
2022/04/26 15:28:24;;;;;;;4.90;1.85;;;18.20;58.50;;;;;;4985497;28;20998;-76
2022/04/26 15:30:50;;;;;;;6.00;1.80;;;18.70;56.90;;;;;;4987112;28;20410;-76
2022/04/26 15:33:17;;;;;;;5.38;1.60;;;19.40;56.70;;;;;;4987925;28;20402;-76
2022/04/26 15:35:43;;;;;;;5.55;1.70;;;19.40;55.40;;;;;;4986316;28;20454;-76
2022/04/26 15:38:12;;;;;;;5.95;1.70;;;18.70;55.40;;;;;;4970295;28;20418;-76
2022/04/26 15:40:40;;;;;;;4.60;1.90;;;18.50;56.40;;;;;;4990283;28;20425;-76
2022/04/26 15:43:06;;;;;;;4.95;1.55;;;18.40;56.10;;;;;;4999918;28;20529;-75
2022/04/26 15:45:32;;;;;;;5.85;1.73;;;18.00;56.40;;;;;;5005923;28;20421;-76
2022/04/26 15:47:58;;;;;;;5.68;1.95;;;17.50;56.60;;;;;;5004413;28;20856;-75
2022/04/26 15:50:23;;;;;;;5.43;1.73;;;17.10;57.50;;;;;;5003590;28;20405;-76
2022/04/26 15:52:50;;;;;;;5.05;1.60;;;17.10;58.20;;;;;;5032525;28;20425;-75
2022/04/26 15:55:16;;;;;;;4.38;1.65;;;17.70;58.50;;;;;;5056476;28;20405;-75
2022/04/26 15:57:44;;;;;;;6.07;1.42;;;18.60;56.90;;;;;;5049087;28;20467;-75
2022/04/26 16:00:11;;;;;;;3.60;1.50;;;19.20;55.30;;;;;;5000337;28;20499;-76
2022/04/26 16:02:36;;;;;;;3.70;1.60;;;19.60;54.10;;;;;;5002025;28;20761;-75
2022/04/26 16:05:03;;;;;;;5.25;1.77;;;19.80;54.20;;;;;;4985569;28;20489;-76
2022/04/26 16:07:29;;;;;;;5.85;1.80;;;20.10;54.60;;;;;;4985228;28;20899;-76
2022/04/26 16:20:51;;;;;;;6.50;1.80;;;18.50;55.40;;;;;;4984437;28;20419;-76
2022/04/26 16:23:16;;;;;;;6.10;1.70;;;17.70;56.80;;;;;;4983803;28;20585;-76
2022/04/26 16:25:42;;;;;;;5.50;1.80;;;17.10;58.30;;;;;;4985890;28;20753;-76
2022/04/26 16:28:09;;;;;;;5.53;1.60;;;16.80;58.80;;;;;;5090341;27;20414;-75
2022/04/26 16:30:36;;;;;;;4.43;1.60;;;16.50;59.70;;;;;;4985211;28;20406;-75
2022/04/26 16:33:04;;;;;;;5.15;1.75;;;16.20;59.30;;;;;;4985498;28;20449;-75
2022/04/26 16:35:31;;;;;;;5.95;1.80;;;16.00;60.00;;;;;;4985028;28;20402;-75
2022/04/26 16:37:57;;;;;;;7.88;2.20;;;15.90;61.30;;;;;;4981548;28;20485;-75
2022/04/26 16:40:23;;;;;;;4.85;1.58;;;15.90;60.80;;;;;;4985179;28;20509;-76
2022/04/26 16:42:50;;;;;;;5.40;1.88;;;15.80;61.20;;;;;;4985833;28;20410;-75
2022/04/26 16:45:16;;;;;;;5.70;1.65;;;15.90;61.50;;;;;;4984320;28;20418;-75
2022/04/26 16:47:41;;;;;;;7.05;1.80;;;15.90;61.60;;;;;;4984273;28;20427;-75
2022/04/26 16:50:07;;;;;;;6.90;2.10;;;15.90;62.40;;;;;;4983907;28;20418;-75
2022/04/26 16:52:35;;;;;;;6.55;1.90;;;15.70;62.10;;;;;;4982025;28;20839;-76
2022/04/26 16:55:01;;;;;;;5.35;1.80;;;15.50;62.50;;;;;;4985062;28;20407;-75
2022/04/26 16:57:28;;;;;;;6.50;1.83;;;15.40;63.00;;;;;;4984476;28;20442;-75
2022/04/26 16:59:56;;;;;;;7.03;2.30;;;15.20;63.90;;;;;;4984571;28;20407;-75
2022/04/26 17:02:23;;;;;;;6.25;1.90;;;15.10;65.10;;;;;;4983087;28;20422;-75
2022/04/26 17:04:48;;;;;;;4.43;2.00;;;15.00;65.10;;;;;;4985261;28;20826;-75
2022/04/26 17:07:14;;;;;;;5.55;1.92;;;15.00;65.60;;;;;;4981004;28;20407;-76
2022/04/26 17:09:40;;;;;;;6.87;2.07;;;14.90;65.20;;;;;;4984947;28;20407;-75
2022/04/26 17:12:06;;;;;;;5.75;1.88;;;14.80;65.30;;;;;;4984815;28;20413;-75
2022/04/26 17:14:32;;;;;;;6.00;1.95;;;14.80;64.80;;;;;;4985101;28;20454;-75
2022/04/26 17:16:58;;;;;;;6.30;1.80;;;14.80;63.80;;;;;;4985157;28;20510;-75
2022/04/26 17:19:24;;;;;;;5.13;1.63;;;14.80;63.80;;;;;;5013151;28;21784;-76
2022/04/26 17:21:50;;;;;;;4.88;1.40;;;14.80;64.10;;;;;;5002214;28;20443;-76
2022/04/26 17:27:00;;;;;;;4.50;1.50;;;14.70;64.60;;;;;;4994976;28;20508;-75
2022/04/26 17:29:26;;;;;;;5.05;1.75;;;14.70;64.60;;;;;;5067419;28;20859;-75
2022/04/26 17:31:53;;;;;;;4.10;1.55;;;14.60;64.50;;;;;;4987500;28;20424;-75
2022/04/26 17:34:20;;;;;;;5.80;1.97;;;14.60;65.40;;;;;;4990035;28;20806;-75
2022/04/26 17:36:47;;;;;;;7.50;2.10;;;14.60;65.90;;;;;;4985630;28;20442;-75
2022/04/26 17:39:12;;;;;;;5.72;1.85;;;14.50;65.80;;;;;;4987719;28;20425;-76
2022/04/26 17:41:41;;;;;;;4.57;1.47;;;14.40;66.10;;;;;;4985973;28;20407;-76
2022/04/26 17:44:08;;;;;;;6.40;2.40;;;14.30;66.80;;;;;;4985617;28;20442;-76
2022/04/26 17:46:35;;;;;;;7.60;1.92;;;14.10;67.40;;;;;;4984184;28;20904;-75
2022/04/26 17:49:01;;;;;;;6.87;2.00;;;14.00;67.90;;;;;;4983365;28;20456;-75
2022/04/26 17:51:26;;;;;;;6.82;1.92;;;13.90;68.30;;;;;;4997047;28;20461;-76
2022/04/26 17:56:39;;;;;;;6.45;2.13;;;13.90;69.50;;;;;;5008542;28;20432;-75
2022/04/26 17:59:05;;;;;;;5.77;2.00;;;13.80;69.70;;;;;;4964578;28;20470;-75
2022/04/26 18:01:30;;;;;;;7.00;2.45;;;13.70;70.10;;;;;;5019868;28;20405;-75
2022/04/26 18:03:56;;;;;;;7.53;2.22;;;13.70;70.90;;;;;;5087671;28;20393;-75
2022/04/26 18:06:22;;;;;;;6.13;2.13;;;13.60;71.20;;;;;;5014957;28;20825;-75
2022/04/26 18:08:47;;;;;;;7.93;2.70;;;13.60;71.20;;;;;;4996774;28;20480;-75
2022/04/26 18:11:14;;;;;;;6.93;2.60;;;13.50;71.30;;;;;;4986218;28;20555;-75
2022/04/26 18:13:40;;;;;;;5.97;2.65;;;13.50;72.00;;;;;;4983271;28;20426;-75
2022/04/26 18:16:07;;;;;;;9.23;2.67;;;13.40;72.40;;;;;;5035999;28;20421;-75
2022/04/26 18:18:33;;;;;;;8.38;3.03;;;13.30;72.80;;;;;;5085908;28;20417;-73
2022/04/26 18:21:00;;;;;;;6.35;2.75;;;13.30;73.50;;;;;;5075653;28;20408;-73